Terminal Aerodrome Forecast
Issued by NWS Pocatello, ID

Home | Current Version | Previous Version | Text Only | Print | Product List | Glossary On
Versions: 1 2 3 4 5 6 7 8 9 10 11 12 13 14 15 16 17 18 19 20 21 22 23
156
FTUS45 KPIH 250520
TAFPIH
TAF
KPIH 250520Z 2506/2606 20008KT P6SM SKC
     FM251800 26010KT P6SM SCT150
     FM260300 VRB05KT P6SM SKC=

USA.gov is the U.S. government's official web portal to all federal, state and local government web resources and services.